sensor_id;sensor_type;location;lat;lon;timestamp;P1;durP1;ratioP1;P2;durP2;ratioP2
50717;SDS011;60557;51.350;12.410;2023-02-23T00:00:10;26.00;;;17.52;;
50717;SDS011;60557;51.350;12.410;2023-02-23T00:02:56;25.60;;;18.60;;
50717;SDS011;60557;51.350;12.410;2023-02-23T00:05:25;27.00;;;18.60;;
50717;SDS011;60557;51.350;12.410;2023-02-23T00:07:51;27.42;;;18.60;;
50717;SDS011;60557;51.350;12.410;2023-02-23T00:10:18;26.00;;;18.20;;
50717;SDS011;60557;51.350;12.410;2023-02-23T00:12:45;30.70;;;19.08;;
50717;SDS011;60557;51.350;12.410;2023-02-23T00:15:13;27.00;;;19.00;;
50717;SDS011;60557;51.350;12.410;2023-02-23T00:17:39;27.65;;;18.85;;
50717;SDS011;60557;51.350;12.410;2023-02-23T00:20:06;27.13;;;18.13;;
50717;SDS011;60557;51.350;12.410;2023-02-23T00:22:39;26.65;;;18.50;;
50717;SDS011;60557;51.350;12.410;2023-02-23T00:25:08;28.27;;;17.73;;
50717;SDS011;60557;51.350;12.410;2023-02-23T00:27:35;26.17;;;18.08;;
50717;SDS011;60557;51.350;12.410;2023-02-23T00:30:08;23.85;;;16.25;;
50717;SDS011;60557;51.350;12.410;2023-02-23T00:32:34;22.33;;;16.40;;
50717;SDS011;60557;51.350;12.410;2023-02-23T00:35:03;24.25;;;17.45;;
50717;SDS011;60557;51.350;12.410;2023-02-23T00:37:33;24.00;;;16.73;;
50717;SDS011;60557;51.350;12.410;2023-02-23T00:40:00;26.42;;;16.15;;
50717;SDS011;60557;51.350;12.410;2023-02-23T00:42:26;21.73;;;16.27;;
50717;SDS011;60557;51.350;12.410;2023-02-23T00:44:56;24.30;;;15.95;;
50717;SDS011;60557;51.350;12.410;2023-02-23T00:47:22;23.52;;;15.68;;
50717;SDS011;60557;51.350;12.410;2023-02-23T00:49:48;22.83;;;15.73;;
50717;SDS011;60557;51.350;12.410;2023-02-23T00:52:14;25.58;;;15.75;;
50717;SDS011;60557;51.350;12.410;2023-02-23T00:54:40;20.40;;;14.95;;
50717;SDS011;60557;51.350;12.410;2023-02-23T00:57:06;21.40;;;16.17;;
50717;SDS011;60557;51.350;12.410;2023-02-23T00:59:32;21.23;;;15.40;;
50717;SDS011;60557;51.350;12.410;2023-02-23T01:01:58;23.08;;;16.00;;
50717;SDS011;60557;51.350;12.410;2023-02-23T01:04:24;23.58;;;15.70;;
50717;SDS011;60557;51.350;12.410;2023-02-23T01:06:50;20.13;;;13.95;;
50717;SDS011;60557;51.350;12.410;2023-02-23T01:09:16;21.70;;;16.27;;
50717;SDS011;60557;51.350;12.410;2023-02-23T01:11:51;24.70;;;15.57;;
50717;SDS011;60557;51.350;12.410;2023-02-23T01:14:18;23.95;;;16.50;;
50717;SDS011;60557;51.350;12.410;2023-02-23T01:16:46;23.73;;;16.42;;
50717;SDS011;60557;51.350;12.410;2023-02-23T01:19:12;22.48;;;17.13;;
50717;SDS011;60557;51.350;12.410;2023-02-23T01:21:39;23.73;;;15.57;;
50717;SDS011;60557;51.350;12.410;2023-02-23T01:24:11;21.38;;;16.13;;
50717;SDS011;60557;51.350;12.410;2023-02-23T01:26:39;22.80;;;16.55;;
50717;SDS011;60557;51.350;12.410;2023-02-23T01:29:12;24.02;;;16.10;;
50717;SDS011;60557;51.350;12.410;2023-02-23T01:31:39;22.38;;;15.75;;
50717;SDS011;60557;51.350;12.410;2023-02-23T01:34:06;23.70;;;16.65;;
50717;SDS011;60557;51.350;12.410;2023-02-23T01:36:34;26.60;;;17.38;;
50717;SDS011;60557;51.350;12.410;2023-02-23T01:39:00;23.05;;;16.98;;
50717;SDS011;60557;51.350;12.410;2023-02-23T01:41:29;24.98;;;17.35;;
50717;SDS011;60557;51.350;12.410;2023-02-23T01:44:03;24.60;;;17.55;;
50717;SDS011;60557;51.350;12.410;2023-02-23T01:46:33;22.70;;;17.33;;
50717;SDS011;60557;51.350;12.410;2023-02-23T01:49:02;24.00;;;17.38;;
50717;SDS011;60557;51.350;12.410;2023-02-23T01:51:32;23.58;;;17.02;;
50717;SDS011;60557;51.350;12.410;2023-02-23T01:56:31;25.08;;;17.80;;
50717;SDS011;60557;51.350;12.410;2023-02-23T01:58:58;28.60;;;18.92;;
50717;SDS011;60557;51.350;12.410;2023-02-23T02:01:27;24.02;;;14.70;;
50717;SDS011;60557;51.350;12.410;2023-02-23T02:03:57;26.40;;;18.00;;
50717;SDS011;60557;51.350;12.410;2023-02-23T02:06:25;25.35;;;17.27;;
50717;SDS011;60557;51.350;12.410;2023-02-23T02:08:58;23.83;;;16.60;;
50717;SDS011;60557;51.350;12.410;2023-02-23T02:11:30;24.67;;;17.17;;
50717;SDS011;60557;51.350;12.410;2023-02-23T02:14:09;24.70;;;17.83;;
50717;SDS011;60557;51.350;12.410;2023-02-23T02:19:19;22.10;;;15.80;;
50717;SDS011;60557;51.350;12.410;2023-02-23T02:24:37;27.47;;;16.10;;
50717;SDS011;60557;51.350;12.410;2023-02-23T02:46:07;21.23;;;15.23;;
50717;SDS011;60557;51.350;12.410;2023-02-23T02:56:13;21.23;;;15.07;;
50717;SDS011;60557;51.350;12.410;2023-02-23T02:58:43;24.25;;;15.45;;
50717;SDS011;60557;51.350;12.410;2023-02-23T03:01:13;23.40;;;16.05;;
50717;SDS011;60557;51.350;12.410;2023-02-23T03:03:59;21.25;;;15.68;;
50717;SDS011;60557;51.350;12.410;2023-02-23T03:06:46;20.52;;;14.75;;
50717;SDS011;60557;51.350;12.410;2023-02-23T03:09:42;22.48;;;14.88;;
50717;SDS011;60557;51.350;12.410;2023-02-23T03:12:38;22.33;;;15.10;;
50717;SDS011;60557;51.350;12.410;2023-02-23T03:21:07;22.05;;;15.23;;
50717;SDS011;60557;51.350;12.410;2023-02-23T03:35:27;20.48;;;13.15;;
50717;SDS011;60557;51.350;12.410;2023-02-23T03:41:17;17.13;;;12.38;;
50717;SDS011;60557;51.350;12.410;2023-02-23T03:44:05;20.30;;;13.25;;
50717;SDS011;60557;51.350;12.410;2023-02-23T03:46:52;19.85;;;11.80;;
50717;SDS011;60557;51.350;12.410;2023-02-23T03:49:37;18.58;;;13.35;;
50717;SDS011;60557;51.350;12.410;2023-02-23T03:52:32;17.80;;;12.73;;
50717;SDS011;60557;51.350;12.410;2023-02-23T03:55:20;21.00;;;13.45;;
50717;SDS011;60557;51.350;12.410;2023-02-23T03:58:08;19.15;;;12.15;;
50717;SDS011;60557;51.350;12.410;2023-02-23T04:00:54;18.23;;;11.55;;
50717;SDS011;60557;51.350;12.410;2023-02-23T04:03:40;15.98;;;11.88;;
50717;SDS011;60557;51.350;12.410;2023-02-23T04:06:27;19.02;;;11.65;;
50717;SDS011;60557;51.350;12.410;2023-02-23T04:09:12;18.17;;;11.80;;
50717;SDS011;60557;51.350;12.410;2023-02-23T04:12:01;16.75;;;10.82;;
50717;SDS011;60557;51.350;12.410;2023-02-23T04:17:25;15.35;;;11.45;;
50717;SDS011;60557;51.350;12.410;2023-02-23T04:19:55;16.90;;;11.00;;
50717;SDS011;60557;51.350;12.410;2023-02-23T04:22:21;21.33;;;12.90;;
50717;SDS011;60557;51.350;12.410;2023-02-23T04:24:50;17.67;;;11.40;;
50717;SDS011;60557;51.350;12.410;2023-02-23T04:27:16;18.13;;;11.38;;
50717;SDS011;60557;51.350;12.410;2023-02-23T04:29:42;16.70;;;10.85;;
50717;SDS011;60557;51.350;12.410;2023-02-23T04:32:12;17.15;;;10.65;;
50717;SDS011;60557;51.350;12.410;2023-02-23T04:34:39;27.73;;;12.60;;
50717;SDS011;60557;51.350;12.410;2023-02-23T04:37:05;18.35;;;11.73;;
50717;SDS011;60557;51.350;12.410;2023-02-23T04:39:32;20.35;;;11.80;;
50717;SDS011;60557;51.350;12.410;2023-02-23T04:42:00;16.85;;;10.70;;
50717;SDS011;60557;51.350;12.410;2023-02-23T04:44:26;28.35;;;13.15;;
50717;SDS011;60557;51.350;12.410;2023-02-23T04:46:52;17.45;;;11.50;;
50717;SDS011;60557;51.350;12.410;2023-02-23T04:49:18;15.48;;;10.95;;
50717;SDS011;60557;51.350;12.410;2023-02-23T04:51:44;22.13;;;11.30;;
50717;SDS011;60557;51.350;12.410;2023-02-23T04:54:12;17.92;;;11.25;;
50717;SDS011;60557;51.350;12.410;2023-02-23T04:56:41;19.45;;;12.10;;
50717;SDS011;60557;51.350;12.410;2023-02-23T04:59:07;19.08;;;10.98;;
50717;SDS011;60557;51.350;12.410;2023-02-23T05:01:36;15.82;;;10.60;;
50717;SDS011;60557;51.350;12.410;2023-02-23T05:04:04;15.02;;;10.77;;
50717;SDS011;60557;51.350;12.410;2023-02-23T05:06:30;15.98;;;10.43;;
50717;SDS011;60557;51.350;12.410;2023-02-23T05:08:56;14.75;;;9.90;;
50717;SDS011;60557;51.350;12.410;2023-02-23T05:11:22;13.70;;;10.43;;
50717;SDS011;60557;51.350;12.410;2023-02-23T05:13:50;17.90;;;9.60;;
50717;SDS011;60557;51.350;12.410;2023-02-23T05:16:17;18.45;;;10.98;;
50717;SDS011;60557;51.350;12.410;2023-02-23T05:18:43;17.65;;;11.95;;
50717;SDS011;60557;51.350;12.410;2023-02-23T05:21:09;20.67;;;12.13;;
50717;SDS011;60557;51.350;12.410;2023-02-23T05:23:35;18.80;;;12.70;;
50717;SDS011;60557;51.350;12.410;2023-02-23T05:26:04;20.83;;;12.30;;
50717;SDS011;60557;51.350;12.410;2023-02-23T05:28:31;17.83;;;11.68;;
50717;SDS011;60557;51.350;12.410;2023-02-23T05:30:58;20.90;;;12.25;;
50717;SDS011;60557;51.350;12.410;2023-02-23T05:33:27;20.80;;;12.40;;
50717;SDS011;60557;51.350;12.410;2023-02-23T05:35:53;17.75;;;11.00;;
50717;SDS011;60557;51.350;12.410;2023-02-23T05:38:19;19.13;;;11.10;;
50717;SDS011;60557;51.350;12.410;2023-02-23T05:40:46;19.67;;;12.32;;
50717;SDS011;60557;51.350;12.410;2023-02-23T05:43:12;19.55;;;10.95;;
50717;SDS011;60557;51.350;12.410;2023-02-23T05:45:39;21.50;;;11.90;;
50717;SDS011;60557;51.350;12.410;2023-02-23T05:48:05;19.67;;;10.95;;
50717;SDS011;60557;51.350;12.410;2023-02-23T05:50:34;18.25;;;10.23;;
50717;SDS011;60557;51.350;12.410;2023-02-23T05:53:00;15.05;;;10.63;;
50717;SDS011;60557;51.350;12.410;2023-02-23T05:55:26;17.33;;;10.75;;
50717;SDS011;60557;51.350;12.410;2023-02-23T05:57:53;20.33;;;11.65;;
50717;SDS011;60557;51.350;12.410;2023-02-23T06:00:19;15.32;;;11.45;;
50717;SDS011;60557;51.350;12.410;2023-02-23T06:02:45;22.15;;;12.75;;
50717;SDS011;60557;51.350;12.410;2023-02-23T06:05:13;17.20;;;12.45;;
50717;SDS011;60557;51.350;12.410;2023-02-23T06:07:40;18.40;;;11.35;;
50717;SDS011;60557;51.350;12.410;2023-02-23T06:10:09;15.82;;;10.93;;
50717;SDS011;60557;51.350;12.410;2023-02-23T06:12:35;23.48;;;14.40;;
50717;SDS011;60557;51.350;12.410;2023-02-23T06:15:01;31.02;;;17.20;;
50717;SDS011;60557;51.350;12.410;2023-02-23T06:17:27;35.42;;;21.13;;
50717;SDS011;60557;51.350;12.410;2023-02-23T06:19:53;36.67;;;20.83;;
50717;SDS011;60557;51.350;12.410;2023-02-23T06:22:22;24.20;;;16.05;;
50717;SDS011;60557;51.350;12.410;2023-02-23T06:24:48;25.60;;;14.10;;
50717;SDS011;60557;51.350;12.410;2023-02-23T06:27:19;20.25;;;12.80;;
50717;SDS011;60557;51.350;12.410;2023-02-23T06:29:45;20.48;;;12.85;;
50717;SDS011;60557;51.350;12.410;2023-02-23T06:32:11;17.33;;;12.27;;
50717;SDS011;60557;51.350;12.410;2023-02-23T06:34:38;18.77;;;13.60;;
50717;SDS011;60557;51.350;12.410;2023-02-23T06:37:07;28.50;;;16.08;;
50717;SDS011;60557;51.350;12.410;2023-02-23T06:39:33;25.17;;;15.80;;
50717;SDS011;60557;51.350;12.410;2023-02-23T06:41:59;20.40;;;14.23;;
50717;SDS011;60557;51.350;12.410;2023-02-23T06:44:28;19.67;;;13.73;;
50717;SDS011;60557;51.350;12.410;2023-02-23T06:46:59;24.88;;;12.95;;
50717;SDS011;60557;51.350;12.410;2023-02-23T06:49:25;13.98;;;10.10;;
50717;SDS011;60557;51.350;12.410;2023-02-23T06:51:51;18.13;;;10.93;;
50717;SDS011;60557;51.350;12.410;2023-02-23T06:54:17;15.85;;;10.70;;
50717;SDS011;60557;51.350;12.410;2023-02-23T06:56:43;17.05;;;9.75;;
50717;SDS011;60557;51.350;12.410;2023-02-23T06:59:09;17.30;;;11.27;;
50717;SDS011;60557;51.350;12.410;2023-02-23T07:01:35;15.00;;;9.50;;
50717;SDS011;60557;51.350;12.410;2023-02-23T07:04:02;16.90;;;10.18;;
50717;SDS011;60557;51.350;12.410;2023-02-23T07:06:28;13.43;;;9.32;;
50717;SDS011;60557;51.350;12.410;2023-02-23T07:08:56;18.60;;;10.65;;
50717;SDS011;60557;51.350;12.410;2023-02-23T07:11:22;25.05;;;14.95;;
50717;SDS011;60557;51.350;12.410;2023-02-23T07:13:53;15.57;;;10.80;;
50717;SDS011;60557;51.350;12.410;2023-02-23T07:16:25;22.67;;;12.82;;
50717;SDS011;60557;51.350;12.410;2023-02-23T07:18:52;15.77;;;11.05;;
50717;SDS011;60557;51.350;12.410;2023-02-23T07:21:18;14.75;;;9.70;;
50717;SDS011;60557;51.350;12.410;2023-02-23T07:23:47;13.25;;;10.55;;
50717;SDS011;60557;51.350;12.410;2023-02-23T07:26:13;20.92;;;11.85;;
50717;SDS011;60557;51.350;12.410;2023-02-23T07:28:41;16.98;;;11.45;;
50717;SDS011;60557;51.350;12.410;2023-02-23T07:31:07;16.02;;;10.32;;
50717;SDS011;60557;51.350;12.410;2023-02-23T07:33:33;15.43;;;10.82;;
50717;SDS011;60557;51.350;12.410;2023-02-23T07:36:01;12.93;;;9.82;;
50717;SDS011;60557;51.350;12.410;2023-02-23T07:38:28;15.55;;;10.30;;
50717;SDS011;60557;51.350;12.410;2023-02-23T07:40:54;16.55;;;11.07;;
50717;SDS011;60557;51.350;12.410;2023-02-23T07:43:20;17.42;;;10.55;;
50717;SDS011;60557;51.350;12.410;2023-02-23T07:45:46;15.63;;;10.50;;
50717;SDS011;60557;51.350;12.410;2023-02-23T07:48:15;20.80;;;10.00;;
50717;SDS011;60557;51.350;12.410;2023-02-23T07:50:41;19.67;;;10.80;;
50717;SDS011;60557;51.350;12.410;2023-02-23T07:53:07;15.43;;;11.00;;
50717;SDS011;60557;51.350;12.410;2023-02-23T07:55:36;19.90;;;11.15;;
50717;SDS011;60557;51.350;12.410;2023-02-23T07:58:02;21.55;;;10.38;;
50717;SDS011;60557;51.350;12.410;2023-02-23T08:00:29;18.15;;;10.95;;
50717;SDS011;60557;51.350;12.410;2023-02-23T08:02:57;20.83;;;10.20;;
50717;SDS011;60557;51.350;12.410;2023-02-23T08:05:23;19.77;;;10.85;;
50717;SDS011;60557;51.350;12.410;2023-02-23T08:07:52;15.55;;;10.95;;
50717;SDS011;60557;51.350;12.410;2023-02-23T08:10:18;14.55;;;10.82;;
50717;SDS011;60557;51.350;12.410;2023-02-23T08:13:01;18.35;;;11.05;;
50717;SDS011;60557;51.350;12.410;2023-02-23T08:15:27;18.38;;;11.50;;
50717;SDS011;60557;51.350;12.410;2023-02-23T08:17:53;21.33;;;10.60;;
50717;SDS011;60557;51.350;12.410;2023-02-23T08:20:22;23.48;;;12.05;;
50717;SDS011;60557;51.350;12.410;2023-02-23T08:22:54;18.77;;;10.65;;
50717;SDS011;60557;51.350;12.410;2023-02-23T08:25:21;21.15;;;11.90;;
50717;SDS011;60557;51.350;12.410;2023-02-23T08:27:47;18.15;;;12.55;;
50717;SDS011;60557;51.350;12.410;2023-02-23T08:30:16;19.77;;;11.77;;
50717;SDS011;60557;51.350;12.410;2023-02-23T08:32:43;25.75;;;13.55;;
50717;SDS011;60557;51.350;12.410;2023-02-23T08:35:09;20.50;;;12.50;;
50717;SDS011;60557;51.350;12.410;2023-02-23T08:37:37;17.67;;;11.85;;
50717;SDS011;60557;51.350;12.410;2023-02-23T08:40:09;19.50;;;12.70;;
50717;SDS011;60557;51.350;12.410;2023-02-23T08:42:40;18.27;;;12.45;;
50717;SDS011;60557;51.350;12.410;2023-02-23T08:45:35;28.02;;;12.15;;
50717;SDS011;60557;51.350;12.410;2023-02-23T08:48:03;21.85;;;12.15;;
50717;SDS011;60557;51.350;12.410;2023-02-23T08:50:30;20.55;;;12.80;;
50717;SDS011;60557;51.350;12.410;2023-02-23T08:52:56;19.83;;;11.95;;
50717;SDS011;60557;51.350;12.410;2023-02-23T08:55:22;21.13;;;12.23;;
50717;SDS011;60557;51.350;12.410;2023-02-23T08:57:48;18.50;;;11.75;;
50717;SDS011;60557;51.350;12.410;2023-02-23T09:00:15;24.67;;;13.48;;
50717;SDS011;60557;51.350;12.410;2023-02-23T09:02:45;20.10;;;13.05;;
50717;SDS011;60557;51.350;12.410;2023-02-23T09:05:12;22.15;;;12.75;;
50717;SDS011;60557;51.350;12.410;2023-02-23T09:07:38;22.50;;;14.05;;
50717;SDS011;60557;51.350;12.410;2023-02-23T09:10:09;23.00;;;15.68;;
50717;SDS011;60557;51.350;12.410;2023-02-23T09:15:05;22.67;;;13.68;;
50717;SDS011;60557;51.350;12.410;2023-02-23T09:17:31;28.05;;;14.30;;
50717;SDS011;60557;51.350;12.410;2023-02-23T09:19:58;43.22;;;23.75;;
50717;SDS011;60557;51.350;12.410;2023-02-23T09:22:24;31.48;;;17.45;;
50717;SDS011;60557;51.350;12.410;2023-02-23T09:24:50;23.15;;;12.82;;
50717;SDS011;60557;51.350;12.410;2023-02-23T09:27:16;18.13;;;13.00;;
50717;SDS011;60557;51.350;12.410;2023-02-23T09:29:44;25.10;;;14.70;;
50717;SDS011;60557;51.350;12.410;2023-02-23T09:32:11;22.17;;;13.90;;
50717;SDS011;60557;51.350;12.410;2023-02-23T09:34:37;23.35;;;13.25;;
50717;SDS011;60557;51.350;12.410;2023-02-23T09:37:03;21.38;;;13.15;;
50717;SDS011;60557;51.350;12.410;2023-02-23T09:39:29;20.75;;;13.65;;
50717;SDS011;60557;51.350;12.410;2023-02-23T09:42:02;21.30;;;13.88;;
50717;SDS011;60557;51.350;12.410;2023-02-23T09:49:43;25.83;;;15.82;;
50717;SDS011;60557;51.350;12.410;2023-02-23T09:52:17;27.00;;;14.75;;
50717;SDS011;60557;51.350;12.410;2023-02-23T09:54:44;24.73;;;14.93;;
50717;SDS011;60557;51.350;12.410;2023-02-23T09:57:12;28.17;;;15.70;;
50717;SDS011;60557;51.350;12.410;2023-02-23T09:59:39;27.10;;;16.10;;
50717;SDS011;60557;51.350;12.410;2023-02-23T10:02:14;25.27;;;16.17;;
50717;SDS011;60557;51.350;12.410;2023-02-23T10:04:47;26.33;;;15.57;;
50717;SDS011;60557;51.350;12.410;2023-02-23T10:12:44;24.60;;;17.08;;
50717;SDS011;60557;51.350;12.410;2023-02-23T10:18:35;24.92;;;16.25;;
50717;SDS011;60557;51.350;12.410;2023-02-23T10:23:16;26.60;;;17.77;;
50717;SDS011;60557;51.350;12.410;2023-02-23T10:25:45;30.80;;;20.33;;
50717;SDS011;60557;51.350;12.410;2023-02-23T10:28:14;25.90;;;17.33;;
50717;SDS011;60557;51.350;12.410;2023-02-23T10:30:40;30.70;;;18.95;;
50717;SDS011;60557;51.350;12.410;2023-02-23T10:33:40;27.35;;;19.58;;
50717;SDS011;60557;51.350;12.410;2023-02-23T10:36:01;34.10;;;19.73;;
50717;SDS011;60557;51.350;12.410;2023-02-23T10:38:34;32.35;;;19.98;;
50717;SDS011;60557;51.350;12.410;2023-02-23T10:41:00;30.20;;;19.23;;
50717;SDS011;60557;51.350;12.410;2023-02-23T10:43:29;25.90;;;18.23;;
50717;SDS011;60557;51.350;12.410;2023-02-23T10:45:55;32.35;;;18.80;;
50717;SDS011;60557;51.350;12.410;2023-02-23T10:48:23;32.88;;;21.33;;
50717;SDS011;60557;51.350;12.410;2023-02-23T10:50:51;29.33;;;19.17;;
50717;SDS011;60557;51.350;12.410;2023-02-23T10:55:45;26.75;;;18.27;;
50717;SDS011;60557;51.350;12.410;2023-02-23T10:58:16;26.98;;;18.15;;
50717;SDS011;60557;51.350;12.410;2023-02-23T11:00:55;31.20;;;19.83;;
50717;SDS011;60557;51.350;12.410;2023-02-23T11:03:27;29.85;;;20.33;;
50717;SDS011;60557;51.350;12.410;2023-02-23T11:05:54;28.88;;;20.10;;
50717;SDS011;60557;51.350;12.410;2023-02-23T11:10:57;30.83;;;19.85;;
50717;SDS011;60557;51.350;12.410;2023-02-23T11:13:27;28.08;;;18.77;;
50717;SDS011;60557;51.350;12.410;2023-02-23T11:15:58;26.13;;;18.45;;
50717;SDS011;60557;51.350;12.410;2023-02-23T11:18:24;34.08;;;21.73;;
50717;SDS011;60557;51.350;12.410;2023-02-23T11:20:51;29.80;;;19.00;;
50717;SDS011;60557;51.350;12.410;2023-02-23T11:23:22;30.45;;;19.38;;
50717;SDS011;60557;51.350;12.410;2023-02-23T11:25:53;32.40;;;19.73;;
50717;SDS011;60557;51.350;12.410;2023-02-23T11:28:23;27.33;;;18.70;;
50717;SDS011;60557;51.350;12.410;2023-02-23T11:30:51;28.92;;;18.70;;
50717;SDS011;60557;51.350;12.410;2023-02-23T11:33:21;29.95;;;19.02;;
50717;SDS011;60557;51.350;12.410;2023-02-23T11:35:49;28.45;;;21.08;;
50717;SDS011;60557;51.350;12.410;2023-02-23T11:38:23;31.63;;;20.33;;
50717;SDS011;60557;51.350;12.410;2023-02-23T11:41:23;28.20;;;19.00;;
50717;SDS011;60557;51.350;12.410;2023-02-23T11:43:51;30.90;;;20.33;;
50717;SDS011;60557;51.350;12.410;2023-02-23T11:46:21;35.10;;;21.13;;
50717;SDS011;60557;51.350;12.410;2023-02-23T11:48:58;28.95;;;20.10;;
50717;SDS011;60557;51.350;12.410;2023-02-23T11:51:25;30.17;;;20.48;;
50717;SDS011;60557;51.350;12.410;2023-02-23T11:53:54;126.05;;;82.95;;
50717;SDS011;60557;51.350;12.410;2023-02-23T11:56:21;31.65;;;20.20;;
50717;SDS011;60557;51.350;12.410;2023-02-23T11:58:54;32.38;;;17.38;;
50717;SDS011;60557;51.350;12.410;2023-02-23T12:01:33;43.20;;;21.13;;
50717;SDS011;60557;51.350;12.410;2023-02-23T12:04:00;27.55;;;16.48;;
50717;SDS011;60557;51.350;12.410;2023-02-23T12:06:31;28.02;;;18.20;;
50717;SDS011;60557;51.350;12.410;2023-02-23T12:15:03;34.45;;;18.90;;
50717;SDS011;60557;51.350;12.410;2023-02-23T12:17:35;31.25;;;17.63;;
50717;SDS011;60557;51.350;12.410;2023-02-23T12:20:06;216.82;;;155.20;;
50717;SDS011;60557;51.350;12.410;2023-02-23T12:22:38;546.13;;;208.95;;
50717;SDS011;60557;51.350;12.410;2023-02-23T12:27:52;522.60;;;194.13;;
50717;SDS011;60557;51.350;12.410;2023-02-23T12:33:24;524.67;;;193.70;;
50717;SDS011;60557;51.350;12.410;2023-02-23T12:39:19;36.33;;;22.90;;
50717;SDS011;60557;51.350;12.410;2023-02-23T12:41:17;33.90;;;21.67;;
50717;SDS011;60557;51.350;12.410;2023-02-23T12:44:01;522.10;;;199.35;;
50717;SDS011;60557;51.350;12.410;2023-02-23T12:46:34;517.37;;;206.30;;
50717;SDS011;60557;51.350;12.410;2023-02-23T12:49:12;537.87;;;213.73;;
50717;SDS011;60557;51.350;12.410;2023-02-23T12:51:42;527.63;;;200.87;;
50717;SDS011;60557;51.350;12.410;2023-02-23T12:54:10;531.53;;;210.17;;
50717;SDS011;60557;51.350;12.410;2023-02-23T12:56:44;523.63;;;205.53;;
50717;SDS011;60557;51.350;12.410;2023-02-23T13:19:51;449.37;;;207.50;;
50717;SDS011;60557;51.350;12.410;2023-02-23T13:24:46;416.63;;;196.87;;
50717;SDS011;60557;51.350;12.410;2023-02-23T13:29:44;38.53;;;25.27;;
50717;SDS011;60557;51.350;12.410;2023-02-23T13:32:13;41.92;;;26.13;;
50717;SDS011;60557;51.350;12.410;2023-02-23T13:34:42;39.17;;;25.98;;
50717;SDS011;60557;51.350;12.410;2023-02-23T13:37:09;40.42;;;27.20;;
50717;SDS011;60557;51.350;12.410;2023-02-23T13:39:42;44.40;;;26.38;;
50717;SDS011;60557;51.350;12.410;2023-02-23T13:42:20;40.05;;;26.85;;
50717;SDS011;60557;51.350;12.410;2023-02-23T13:55:17;45.40;;;28.02;;
50717;SDS011;60557;51.350;12.410;2023-02-23T13:57:50;47.53;;;28.83;;
50717;SDS011;60557;51.350;12.410;2023-02-23T14:00:21;46.63;;;28.48;;
50717;SDS011;60557;51.350;12.410;2023-02-23T14:02:48;160.57;;;88.68;;
50717;SDS011;60557;51.350;12.410;2023-02-23T14:07:44;45.17;;;28.35;;
50717;SDS011;60557;51.350;12.410;2023-02-23T14:10:16;47.72;;;28.67;;
50717;SDS011;60557;51.350;12.410;2023-02-23T14:13:03;48.58;;;27.15;;
50717;SDS011;60557;51.350;12.410;2023-02-23T14:25:44;321.38;;;144.05;;
50717;SDS011;60557;51.350;12.410;2023-02-23T14:33:48;439.53;;;206.23;;
50717;SDS011;60557;51.350;12.410;2023-02-23T14:38:56;379.20;;;203.37;;
50717;SDS011;60557;51.350;12.410;2023-02-23T14:41:39;346.70;;;184.93;;
50717;SDS011;60557;51.350;12.410;2023-02-23T14:44:12;281.67;;;136.13;;
50717;SDS011;60557;51.350;12.410;2023-02-23T14:46:55;424.33;;;180.40;;
50717;SDS011;60557;51.350;12.410;2023-02-23T14:49:22;34.25;;;31.27;;
50717;SDS011;60557;51.350;12.410;2023-02-23T14:51:53;317.10;;;140.30;;
50717;SDS011;60557;51.350;12.410;2023-02-23T14:56:46;52.63;;;31.80;;
50717;SDS011;60557;51.350;12.410;2023-02-23T14:59:17;53.47;;;33.30;;
50717;SDS011;60557;51.350;12.410;2023-02-23T15:01:45;50.40;;;32.33;;
50717;SDS011;60557;51.350;12.410;2023-02-23T15:04:12;54.78;;;34.30;;
50717;SDS011;60557;51.350;12.410;2023-02-23T15:06:41;55.65;;;35.65;;
50717;SDS011;60557;51.350;12.410;2023-02-23T15:09:14;53.47;;;34.63;;
50717;SDS011;60557;51.350;12.410;2023-02-23T15:11:41;59.75;;;34.88;;
50717;SDS011;60557;51.350;12.410;2023-02-23T15:14:13;57.53;;;34.42;;
50717;SDS011;60557;51.350;12.410;2023-02-23T15:16:42;225.40;;;112.53;;
50717;SDS011;60557;51.350;12.410;2023-02-23T15:19:15;131.73;;;67.80;;
50717;SDS011;60557;51.350;12.410;2023-02-23T15:21:42;369.83;;;179.77;;
50717;SDS011;60557;51.350;12.410;2023-02-23T15:24:15;56.45;;;33.22;;
50717;SDS011;60557;51.350;12.410;2023-02-23T15:26:45;52.97;;;32.97;;
50717;SDS011;60557;51.350;12.410;2023-02-23T15:29:12;54.05;;;33.78;;
50717;SDS011;60557;51.350;12.410;2023-02-23T15:31:39;51.80;;;31.75;;
50717;SDS011;60557;51.350;12.410;2023-02-23T15:34:18;53.50;;;34.85;;
50717;SDS011;60557;51.350;12.410;2023-02-23T15:36:49;51.40;;;35.70;;
50717;SDS011;60557;51.350;12.410;2023-02-23T15:39:18;57.13;;;34.78;;
50717;SDS011;60557;51.350;12.410;2023-02-23T15:41:45;54.30;;;34.83;;
50717;SDS011;60557;51.350;12.410;2023-02-23T15:46:39;359.07;;;159.70;;
50717;SDS011;60557;51.350;12.410;2023-02-23T15:49:12;187.27;;;88.27;;
50717;SDS011;60557;51.350;12.410;2023-02-23T15:51:42;331.70;;;219.50;;
50717;SDS011;60557;51.350;12.410;2023-02-23T15:54:20;55.50;;;34.70;;
50717;SDS011;60557;51.350;12.410;2023-02-23T15:56:53;445.17;;;213.23;;
50717;SDS011;60557;51.350;12.410;2023-02-23T15:59:24;195.98;;;115.53;;
50717;SDS011;60557;51.350;12.410;2023-02-23T16:01:56;58.05;;;34.67;;
50717;SDS011;60557;51.350;12.410;2023-02-23T16:04:25;59.85;;;36.60;;
50717;SDS011;60557;51.350;12.410;2023-02-23T16:07:06;60.08;;;35.28;;
50717;SDS011;60557;51.350;12.410;2023-02-23T16:09:38;471.05;;;182.25;;
50717;SDS011;60557;51.350;12.410;2023-02-23T16:12:09;435.63;;;216.40;;
50717;SDS011;60557;51.350;12.410;2023-02-23T16:14:43;192.07;;;117.53;;
50717;SDS011;60557;51.350;12.410;2023-02-23T16:22:47;64.15;;;38.13;;
50717;SDS011;60557;51.350;12.410;2023-02-23T16:25:19;246.50;;;113.65;;
50717;SDS011;60557;51.350;12.410;2023-02-23T16:27:49;77.13;;;47.67;;
50717;SDS011;60557;51.350;12.410;2023-02-23T16:32:48;76.70;;;43.40;;
50717;SDS011;60557;51.350;12.410;2023-02-23T16:35:34;72.88;;;41.40;;
50717;SDS011;60557;51.350;12.410;2023-02-23T16:38:02;71.40;;;41.17;;
50717;SDS011;60557;51.350;12.410;2023-02-23T16:40:28;70.22;;;38.97;;
50717;SDS011;60557;51.350;12.410;2023-02-23T16:42:54;71.57;;;41.70;;
50717;SDS011;60557;51.350;12.410;2023-02-23T16:45:25;71.13;;;40.40;;
50717;SDS011;60557;51.350;12.410;2023-02-23T16:47:54;75.10;;;42.05;;
50717;SDS011;60557;51.350;12.410;2023-02-23T16:50:25;70.25;;;41.63;;
50717;SDS011;60557;51.350;12.410;2023-02-23T16:52:52;72.97;;;43.65;;
50717;SDS011;60557;51.350;12.410;2023-02-23T16:55:22;68.65;;;40.28;;
50717;SDS011;60557;51.350;12.410;2023-02-23T16:57:49;70.38;;;37.35;;
50717;SDS011;60557;51.350;12.410;2023-02-23T17:00:19;82.10;;;45.15;;
50717;SDS011;60557;51.350;12.410;2023-02-23T17:02:46;86.82;;;47.95;;
50717;SDS011;60557;51.350;12.410;2023-02-23T17:05:13;83.50;;;46.97;;
50717;SDS011;60557;51.350;12.410;2023-02-23T17:07:42;79.70;;;44.90;;